sensor_id;sensor_type;location;lat;lon;timestamp;P1;durP1;ratioP1;P2;durP2;ratioP2
66761;SDS011;53672;48.176;16.338;2023-01-09T00:03:08;36.00;;;14.07;;
66761;SDS011;53672;48.176;16.338;2023-01-09T00:08:08;35.27;;;13.73;;
66761;SDS011;53672;48.176;16.338;2023-01-09T00:13:11;39.33;;;14.68;;
66761;SDS011;53672;48.176;16.338;2023-01-09T00:18:12;35.17;;;14.07;;
66761;SDS011;53672;48.176;16.338;2023-01-09T00:23:12;37.80;;;15.07;;
66761;SDS011;53672;48.176;16.338;2023-01-09T00:28:14;33.43;;;13.77;;
66761;SDS011;53672;48.176;16.338;2023-01-09T00:33:15;36.30;;;15.25;;
66761;SDS011;53672;48.176;16.338;2023-01-09T00:38:15;40.27;;;14.57;;
66761;SDS011;53672;48.176;16.338;2023-01-09T00:43:17;35.27;;;15.43;;
66761;SDS011;53672;48.176;16.338;2023-01-09T00:48:20;44.45;;;16.75;;
66761;SDS011;53672;48.176;16.338;2023-01-09T00:53:23;42.40;;;15.23;;
66761;SDS011;53672;48.176;16.338;2023-01-09T00:58:29;44.70;;;15.52;;
66761;SDS011;53672;48.176;16.338;2023-01-09T01:03:30;45.92;;;14.65;;
66761;SDS011;53672;48.176;16.338;2023-01-09T01:08:31;39.80;;;14.03;;
66761;SDS011;53672;48.176;16.338;2023-01-09T01:13:33;37.27;;;14.43;;
66761;SDS011;53672;48.176;16.338;2023-01-09T01:18:34;40.50;;;14.60;;
66761;SDS011;53672;48.176;16.338;2023-01-09T01:23:34;48.07;;;16.27;;
66761;SDS011;53672;48.176;16.338;2023-01-09T01:28:37;41.78;;;15.05;;
66761;SDS011;53672;48.176;16.338;2023-01-09T01:33:38;42.85;;;15.35;;
66761;SDS011;53672;48.176;16.338;2023-01-09T01:38:39;41.80;;;15.53;;
66761;SDS011;53672;48.176;16.338;2023-01-09T01:43:50;40.27;;;15.00;;
66761;SDS011;53672;48.176;16.338;2023-01-09T01:48:53;40.40;;;14.63;;
66761;SDS011;53672;48.176;16.338;2023-01-09T01:53:59;38.90;;;14.77;;
66761;SDS011;53672;48.176;16.338;2023-01-09T01:59:07;38.97;;;13.63;;
66761;SDS011;53672;48.176;16.338;2023-01-09T02:04:10;35.45;;;13.63;;
66761;SDS011;53672;48.176;16.338;2023-01-09T02:09:11;37.80;;;13.90;;
66761;SDS011;53672;48.176;16.338;2023-01-09T02:14:14;38.30;;;13.10;;
66761;SDS011;53672;48.176;16.338;2023-01-09T02:19:21;38.90;;;14.32;;
66761;SDS011;53672;48.176;16.338;2023-01-09T02:30:32;36.25;;;14.57;;
66761;SDS011;53672;48.176;16.338;2023-01-09T02:35:45;40.47;;;14.47;;
66761;SDS011;53672;48.176;16.338;2023-01-09T02:41:01;36.95;;;14.63;;
66761;SDS011;53672;48.176;16.338;2023-01-09T02:46:10;36.55;;;13.82;;
66761;SDS011;53672;48.176;16.338;2023-01-09T02:51:20;38.25;;;14.85;;
66761;SDS011;53672;48.176;16.338;2023-01-09T02:56:34;34.63;;;13.52;;
66761;SDS011;53672;48.176;16.338;2023-01-09T03:01:59;34.67;;;13.40;;
66761;SDS011;53672;48.176;16.338;2023-01-09T03:07:10;32.65;;;13.70;;
66761;SDS011;53672;48.176;16.338;2023-01-09T03:12:17;35.35;;;14.00;;
66761;SDS011;53672;48.176;16.338;2023-01-09T03:17:24;36.13;;;14.85;;
66761;SDS011;53672;48.176;16.338;2023-01-09T03:22:28;37.75;;;14.95;;
66761;SDS011;53672;48.176;16.338;2023-01-09T03:27:29;43.73;;;16.27;;
66761;SDS011;53672;48.176;16.338;2023-01-09T03:32:31;36.03;;;15.00;;
66761;SDS011;53672;48.176;16.338;2023-01-09T03:37:32;40.90;;;15.30;;
66761;SDS011;53672;48.176;16.338;2023-01-09T03:42:32;35.40;;;14.73;;
66761;SDS011;53672;48.176;16.338;2023-01-09T03:47:34;35.13;;;15.17;;
66761;SDS011;53672;48.176;16.338;2023-01-09T03:52:34;38.45;;;14.80;;
66761;SDS011;53672;48.176;16.338;2023-01-09T03:57:35;36.93;;;14.63;;
66761;SDS011;53672;48.176;16.338;2023-01-09T04:02:37;39.40;;;15.70;;
66761;SDS011;53672;48.176;16.338;2023-01-09T04:07:38;38.10;;;15.57;;
66761;SDS011;53672;48.176;16.338;2023-01-09T04:12:38;36.60;;;14.15;;
66761;SDS011;53672;48.176;16.338;2023-01-09T04:17:40;41.53;;;15.33;;
66761;SDS011;53672;48.176;16.338;2023-01-09T04:22:41;34.33;;;14.05;;
66761;SDS011;53672;48.176;16.338;2023-01-09T04:27:41;29.10;;;12.60;;
66761;SDS011;53672;48.176;16.338;2023-01-09T04:32:43;27.07;;;12.33;;
66761;SDS011;53672;48.176;16.338;2023-01-09T04:37:44;25.42;;;11.70;;
66761;SDS011;53672;48.176;16.338;2023-01-09T04:42:44;26.63;;;11.93;;
66761;SDS011;53672;48.176;16.338;2023-01-09T04:47:46;27.73;;;12.20;;
66761;SDS011;53672;48.176;16.338;2023-01-09T04:52:47;28.20;;;12.38;;
66761;SDS011;53672;48.176;16.338;2023-01-09T04:57:47;29.85;;;12.85;;
66761;SDS011;53672;48.176;16.338;2023-01-09T05:02:49;29.73;;;12.13;;
66761;SDS011;53672;48.176;16.338;2023-01-09T05:07:50;30.30;;;11.77;;
66761;SDS011;53672;48.176;16.338;2023-01-09T05:12:50;29.17;;;12.03;;
66761;SDS011;53672;48.176;16.338;2023-01-09T05:17:52;24.52;;;10.90;;
66761;SDS011;53672;48.176;16.338;2023-01-09T05:22:52;24.83;;;10.32;;
66761;SDS011;53672;48.176;16.338;2023-01-09T05:27:53;19.93;;;9.30;;
66761;SDS011;53672;48.176;16.338;2023-01-09T05:32:55;19.27;;;9.03;;
66761;SDS011;53672;48.176;16.338;2023-01-09T05:37:55;18.45;;;9.43;;
66761;SDS011;53672;48.176;16.338;2023-01-09T05:42:56;17.40;;;8.53;;
66761;SDS011;53672;48.176;16.338;2023-01-09T05:47:58;17.10;;;8.20;;
66761;SDS011;53672;48.176;16.338;2023-01-09T05:52:58;16.70;;;7.90;;
66761;SDS011;53672;48.176;16.338;2023-01-09T05:57:59;15.77;;;7.97;;
66761;SDS011;53672;48.176;16.338;2023-01-09T06:03:01;10.90;;;5.23;;
66761;SDS011;53672;48.176;16.338;2023-01-09T06:08:02;11.73;;;5.57;;
66761;SDS011;53672;48.176;16.338;2023-01-09T06:13:02;7.13;;;3.50;;
66761;SDS011;53672;48.176;16.338;2023-01-09T06:18:04;8.67;;;4.73;;
66761;SDS011;53672;48.176;16.338;2023-01-09T06:23:05;11.45;;;5.20;;
66761;SDS011;53672;48.176;16.338;2023-01-09T06:28:05;12.20;;;5.70;;
66761;SDS011;53672;48.176;16.338;2023-01-09T06:33:07;11.43;;;5.13;;
66761;SDS011;53672;48.176;16.338;2023-01-09T06:38:08;11.07;;;5.10;;
66761;SDS011;53672;48.176;16.338;2023-01-09T06:43:08;8.60;;;3.63;;
66761;SDS011;53672;48.176;16.338;2023-01-09T06:48:10;9.37;;;3.70;;
66761;SDS011;53672;48.176;16.338;2023-01-09T06:53:11;6.65;;;3.35;;
66761;SDS011;53672;48.176;16.338;2023-01-09T06:58:12;7.47;;;3.60;;
66761;SDS011;53672;48.176;16.338;2023-01-09T07:03:14;8.90;;;3.53;;
66761;SDS011;53672;48.176;16.338;2023-01-09T07:08:15;8.68;;;3.38;;
66761;SDS011;53672;48.176;16.338;2023-01-09T07:13:15;7.77;;;3.13;;
66761;SDS011;53672;48.176;16.338;2023-01-09T07:18:17;7.47;;;3.47;;
66761;SDS011;53672;48.176;16.338;2023-01-09T07:23:18;6.88;;;3.20;;
66761;SDS011;53672;48.176;16.338;2023-01-09T07:28:18;8.77;;;3.30;;
66761;SDS011;53672;48.176;16.338;2023-01-09T07:33:20;7.60;;;3.47;;
66761;SDS011;53672;48.176;16.338;2023-01-09T07:38:21;6.68;;;3.33;;
66761;SDS011;53672;48.176;16.338;2023-01-09T07:43:21;16.80;;;7.87;;
66761;SDS011;53672;48.176;16.338;2023-01-09T07:48:23;19.37;;;9.83;;
66761;SDS011;53672;48.176;16.338;2023-01-09T07:53:23;21.73;;;9.75;;
66761;SDS011;53672;48.176;16.338;2023-01-09T07:58:24;19.90;;;9.25;;
66761;SDS011;53672;48.176;16.338;2023-01-09T08:03:26;18.73;;;8.77;;
66761;SDS011;53672;48.176;16.338;2023-01-09T08:08:26;23.53;;;10.43;;
66761;SDS011;53672;48.176;16.338;2023-01-09T08:13:27;24.70;;;11.60;;
66761;SDS011;53672;48.176;16.338;2023-01-09T08:18:29;21.20;;;11.05;;
66761;SDS011;53672;48.176;16.338;2023-01-09T08:23:29;23.53;;;11.23;;
66761;SDS011;53672;48.176;16.338;2023-01-09T08:28:30;24.07;;;10.43;;
66761;SDS011;53672;48.176;16.338;2023-01-09T08:33:32;24.63;;;10.93;;
66761;SDS011;53672;48.176;16.338;2023-01-09T08:38:33;22.42;;;10.48;;
66761;SDS011;53672;48.176;16.338;2023-01-09T08:43:33;22.80;;;10.40;;
66761;SDS011;53672;48.176;16.338;2023-01-09T08:48:35;25.60;;;10.73;;
66761;SDS011;53672;48.176;16.338;2023-01-09T08:53:36;22.90;;;10.53;;
66761;SDS011;53672;48.176;16.338;2023-01-09T08:58:36;25.33;;;10.63;;
66761;SDS011;53672;48.176;16.338;2023-01-09T09:03:38;22.25;;;9.95;;
66761;SDS011;53672;48.176;16.338;2023-01-09T09:08:38;24.08;;;10.23;;
66761;SDS011;53672;48.176;16.338;2023-01-09T09:13:39;25.73;;;10.77;;
66761;SDS011;53672;48.176;16.338;2023-01-09T09:18:41;23.57;;;11.30;;
66761;SDS011;53672;48.176;16.338;2023-01-09T09:23:41;22.17;;;9.70;;
66761;SDS011;53672;48.176;16.338;2023-01-09T09:28:42;20.67;;;10.00;;
66761;SDS011;53672;48.176;16.338;2023-01-09T09:33:44;17.33;;;8.30;;
66761;SDS011;53672;48.176;16.338;2023-01-09T09:38:44;14.43;;;6.22;;
66761;SDS011;53672;48.176;16.338;2023-01-09T09:43:51;11.63;;;5.57;;
66761;SDS011;53672;48.176;16.338;2023-01-09T09:49:05;11.15;;;4.65;;
66761;SDS011;53672;48.176;16.338;2023-01-09T09:54:13;9.00;;;3.80;;
66761;SDS011;53672;48.176;16.338;2023-01-09T09:59:18;7.30;;;3.10;;
66761;SDS011;53672;48.176;16.338;2023-01-09T10:04:24;7.72;;;3.10;;
66761;SDS011;53672;48.176;16.338;2023-01-09T10:09:29;5.70;;;2.63;;
66761;SDS011;53672;48.176;16.338;2023-01-09T10:14:40;5.90;;;2.50;;
66761;SDS011;53672;48.176;16.338;2023-01-09T10:19:45;5.13;;;2.10;;
66761;SDS011;53672;48.176;16.338;2023-01-09T10:25:11;4.68;;;1.30;;
66761;SDS011;53672;48.176;16.338;2023-01-09T10:30:24;4.03;;;1.30;;
66761;SDS011;53672;48.176;16.338;2023-01-09T10:35:40;4.07;;;1.40;;
66761;SDS011;53672;48.176;16.338;2023-01-09T10:40:52;3.67;;;1.37;;
66761;SDS011;53672;48.176;16.338;2023-01-09T10:45:56;3.13;;;0.95;;
66761;SDS011;53672;48.176;16.338;2023-01-09T10:51:00;2.53;;;0.70;;
66761;SDS011;53672;48.176;16.338;2023-01-09T10:56:10;3.10;;;0.70;;
66761;SDS011;53672;48.176;16.338;2023-01-09T11:01:15;3.60;;;0.90;;
66761;SDS011;53672;48.176;16.338;2023-01-09T11:06:21;3.03;;;0.73;;
66761;SDS011;53672;48.176;16.338;2023-01-09T11:11:31;2.42;;;0.68;;
66761;SDS011;53672;48.176;16.338;2023-01-09T11:16:33;2.25;;;0.63;;
66761;SDS011;53672;48.176;16.338;2023-01-09T11:21:35;2.70;;;0.80;;
66761;SDS011;53672;48.176;16.338;2023-01-09T11:26:37;2.03;;;0.60;;
66761;SDS011;53672;48.176;16.338;2023-01-09T11:31:38;2.25;;;0.50;;
66761;SDS011;53672;48.176;16.338;2023-01-09T11:36:41;2.13;;;0.50;;
66761;SDS011;53672;48.176;16.338;2023-01-09T11:41:42;4.35;;;0.75;;
66761;SDS011;53672;48.176;16.338;2023-01-09T11:46:42;2.43;;;0.60;;
66761;SDS011;53672;48.176;16.338;2023-01-09T11:51:44;2.57;;;0.60;;
66761;SDS011;53672;48.176;16.338;2023-01-09T11:56:45;2.90;;;0.70;;
66761;SDS011;53672;48.176;16.338;2023-01-09T12:07:30;2.58;;;0.65;;
66761;SDS011;53672;48.176;16.338;2023-01-09T12:12:51;3.17;;;1.00;;
66761;SDS011;53672;48.176;16.338;2023-01-09T12:23:31;3.30;;;0.90;;
66761;SDS011;53672;48.176;16.338;2023-01-09T12:28:50;2.85;;;0.70;;
66761;SDS011;53672;48.176;16.338;2023-01-09T12:34:15;2.67;;;0.60;;
66761;SDS011;53672;48.176;16.338;2023-01-09T12:39:29;2.20;;;0.60;;
66761;SDS011;53672;48.176;16.338;2023-01-09T12:44:42;3.10;;;1.00;;
66761;SDS011;53672;48.176;16.338;2023-01-09T12:49:49;3.08;;;0.75;;
66761;SDS011;53672;48.176;16.338;2023-01-09T12:55:00;4.15;;;1.00;;
66761;SDS011;53672;48.176;16.338;2023-01-09T13:00:11;3.08;;;0.80;;
66761;SDS011;53672;48.176;16.338;2023-01-09T13:05:16;3.72;;;0.98;;
66761;SDS011;53672;48.176;16.338;2023-01-09T13:10:22;3.27;;;1.10;;
66761;SDS011;53672;48.176;16.338;2023-01-09T13:15:28;3.40;;;1.10;;
66761;SDS011;53672;48.176;16.338;2023-01-09T13:20:34;4.20;;;1.52;;
66761;SDS011;53672;48.176;16.338;2023-01-09T13:25:42;3.60;;;1.20;;
66761;SDS011;53672;48.176;16.338;2023-01-09T13:30:50;3.78;;;1.38;;
66761;SDS011;53672;48.176;16.338;2023-01-09T13:36:19;3.70;;;1.33;;
66761;SDS011;53672;48.176;16.338;2023-01-09T13:41:25;4.82;;;1.30;;
66761;SDS011;53672;48.176;16.338;2023-01-09T13:46:36;4.32;;;1.27;;
66761;SDS011;53672;48.176;16.338;2023-01-09T13:57:23;4.50;;;1.50;;
66761;SDS011;53672;48.176;16.338;2023-01-09T14:08:03;4.82;;;1.60;;
66761;SDS011;53672;48.176;16.338;2023-01-09T14:13:13;5.47;;;1.58;;
66761;SDS011;53672;48.176;16.338;2023-01-09T14:18:17;5.93;;;1.80;;
66761;SDS011;53672;48.176;16.338;2023-01-09T14:23:22;4.30;;;1.40;;
66761;SDS011;53672;48.176;16.338;2023-01-09T14:28:26;3.83;;;1.30;;
66761;SDS011;53672;48.176;16.338;2023-01-09T14:33:27;6.30;;;1.20;;
66761;SDS011;53672;48.176;16.338;2023-01-09T14:38:29;4.10;;;1.30;;
66761;SDS011;53672;48.176;16.338;2023-01-09T14:43:43;3.70;;;1.25;;
66761;SDS011;53672;48.176;16.338;2023-01-09T14:48:56;5.78;;;1.50;;
66761;SDS011;53672;48.176;16.338;2023-01-09T14:54:03;4.70;;;1.37;;
66761;SDS011;53672;48.176;16.338;2023-01-09T14:59:19;4.53;;;1.23;;
66761;SDS011;53672;48.176;16.338;2023-01-09T15:04:30;5.70;;;1.70;;
66761;SDS011;53672;48.176;16.338;2023-01-09T15:09:35;4.32;;;1.30;;
66761;SDS011;53672;48.176;16.338;2023-01-09T15:14:43;4.55;;;1.27;;
66761;SDS011;53672;48.176;16.338;2023-01-09T15:19:46;4.13;;;1.33;;
66761;SDS011;53672;48.176;16.338;2023-01-09T15:24:48;4.18;;;1.10;;
66761;SDS011;53672;48.176;16.338;2023-01-09T15:29:50;3.70;;;1.33;;
66761;SDS011;53672;48.176;16.338;2023-01-09T15:34:51;4.35;;;1.55;;
66761;SDS011;53672;48.176;16.338;2023-01-09T15:39:53;3.40;;;1.10;;
66761;SDS011;53672;48.176;16.338;2023-01-09T15:44:56;4.20;;;1.30;;
66761;SDS011;53672;48.176;16.338;2023-01-09T15:49:57;4.15;;;1.23;;
66761;SDS011;53672;48.176;16.338;2023-01-09T15:55:00;3.70;;;1.27;;
66761;SDS011;53672;48.176;16.338;2023-01-09T16:05:40;3.80;;;1.38;;
66761;SDS011;53672;48.176;16.338;2023-01-09T16:10:42;3.83;;;1.27;;
66761;SDS011;53672;48.176;16.338;2023-01-09T16:15:50;5.45;;;1.60;;
66761;SDS011;53672;48.176;16.338;2023-01-09T16:20:59;4.47;;;1.60;;
66761;SDS011;53672;48.176;16.338;2023-01-09T16:26:05;5.17;;;1.53;;
66761;SDS011;53672;48.176;16.338;2023-01-09T16:31:17;5.28;;;1.75;;
66761;SDS011;53672;48.176;16.338;2023-01-09T16:36:19;3.83;;;1.70;;
66761;SDS011;53672;48.176;16.338;2023-01-09T16:41:20;5.40;;;1.92;;
66761;SDS011;53672;48.176;16.338;2023-01-09T16:46:22;5.03;;;1.70;;
66761;SDS011;53672;48.176;16.338;2023-01-09T16:51:23;3.83;;;1.48;;
66761;SDS011;53672;48.176;16.338;2023-01-09T16:56:24;5.27;;;2.00;;
66761;SDS011;53672;48.176;16.338;2023-01-09T17:01:28;8.17;;;2.30;;
66761;SDS011;53672;48.176;16.338;2023-01-09T17:06:29;6.68;;;1.60;;
66761;SDS011;53672;48.176;16.338;2023-01-09T17:11:31;5.20;;;2.03;;
66761;SDS011;53672;48.176;16.338;2023-01-09T17:16:34;5.73;;;2.10;;
66761;SDS011;53672;48.176;16.338;2023-01-09T17:21:34;6.20;;;2.10;;
66761;SDS011;53672;48.176;16.338;2023-01-09T17:26:35;4.75;;;1.60;;
66761;SDS011;53672;48.176;16.338;2023-01-09T17:31:38;6.35;;;2.50;;
66761;SDS011;53672;48.176;16.338;2023-01-09T17:36:39;5.95;;;2.10;;
66761;SDS011;53672;48.176;16.338;2023-01-09T17:41:39;5.93;;;2.10;;
66761;SDS011;53672;48.176;16.338;2023-01-09T17:46:42;6.27;;;2.00;;
66761;SDS011;53672;48.176;16.338;2023-01-09T17:51:43;5.00;;;1.85;;
66761;SDS011;53672;48.176;16.338;2023-01-09T17:56:45;6.00;;;1.93;;
66761;SDS011;53672;48.176;16.338;2023-01-09T18:01:49;5.07;;;1.98;;
66761;SDS011;53672;48.176;16.338;2023-01-09T18:06:50;5.50;;;2.20;;
66761;SDS011;53672;48.176;16.338;2023-01-09T18:11:50;5.10;;;1.90;;
66761;SDS011;53672;48.176;16.338;2023-01-09T18:16:52;4.63;;;1.67;;
66761;SDS011;53672;48.176;16.338;2023-01-09T18:21:53;6.38;;;1.77;;
66761;SDS011;53672;48.176;16.338;2023-01-09T18:26:53;4.60;;;1.73;;
66761;SDS011;53672;48.176;16.338;2023-01-09T18:31:55;6.37;;;1.93;;
66761;SDS011;53672;48.176;16.338;2023-01-09T18:36:57;6.10;;;1.92;;
66761;SDS011;53672;48.176;16.338;2023-01-09T18:41:57;5.07;;;1.97;;
66761;SDS011;53672;48.176;16.338;2023-01-09T18:46:59;7.40;;;1.97;;
66761;SDS011;53672;48.176;16.338;2023-01-09T18:52:00;5.95;;;1.92;;
66761;SDS011;53672;48.176;16.338;2023-01-09T18:57:01;8.17;;;2.70;;
66761;SDS011;53672;48.176;16.338;2023-01-09T19:02:03;6.32;;;2.30;;
66761;SDS011;53672;48.176;16.338;2023-01-09T19:07:04;4.55;;;2.00;;
66761;SDS011;53672;48.176;16.338;2023-01-09T19:12:05;6.90;;;1.63;;
66761;SDS011;53672;48.176;16.338;2023-01-09T19:17:08;5.78;;;2.15;;
66761;SDS011;53672;48.176;16.338;2023-01-09T19:22:09;6.40;;;1.90;;
66761;SDS011;53672;48.176;16.338;2023-01-09T19:27:10;9.53;;;1.87;;
66761;SDS011;53672;48.176;16.338;2023-01-09T19:32:12;4.60;;;1.63;;
66761;SDS011;53672;48.176;16.338;2023-01-09T19:37:13;4.90;;;1.80;;
66761;SDS011;53672;48.176;16.338;2023-01-09T19:42:14;5.97;;;2.10;;
66761;SDS011;53672;48.176;16.338;2023-01-09T19:47:17;5.80;;;2.10;;
66761;SDS011;53672;48.176;16.338;2023-01-09T19:52:18;6.60;;;2.30;;
66761;SDS011;53672;48.176;16.338;2023-01-09T19:57:19;7.83;;;2.90;;
66761;SDS011;53672;48.176;16.338;2023-01-09T20:02:21;11.30;;;3.55;;
66761;SDS011;53672;48.176;16.338;2023-01-09T20:07:22;7.28;;;2.75;;
66761;SDS011;53672;48.176;16.338;2023-01-09T20:12:22;7.73;;;3.13;;
66761;SDS011;53672;48.176;16.338;2023-01-09T20:17:25;9.33;;;3.60;;
66761;SDS011;53672;48.176;16.338;2023-01-09T20:22:26;6.18;;;2.10;;
66761;SDS011;53672;48.176;16.338;2023-01-09T20:27:26;5.80;;;2.00;;
66761;SDS011;53672;48.176;16.338;2023-01-09T20:32:28;5.97;;;2.17;;
66761;SDS011;53672;48.176;16.338;2023-01-09T20:37:29;8.15;;;3.10;;
66761;SDS011;53672;48.176;16.338;2023-01-09T20:42:30;7.93;;;2.00;;
66761;SDS011;53672;48.176;16.338;2023-01-09T20:47:31;4.47;;;1.40;;
66761;SDS011;53672;48.176;16.338;2023-01-09T20:52:32;7.22;;;1.95;;
66761;SDS011;53672;48.176;16.338;2023-01-09T20:57:33;4.93;;;1.77;;
66761;SDS011;53672;48.176;16.338;2023-01-09T21:02:35;5.95;;;1.83;;
66761;SDS011;53672;48.176;16.338;2023-01-09T21:07:36;5.23;;;1.70;;
66761;SDS011;53672;48.176;16.338;2023-01-09T21:12:36;6.83;;;1.73;;
66761;SDS011;53672;48.176;16.338;2023-01-09T21:17:38;8.40;;;1.90;;
66761;SDS011;53672;48.176;16.338;2023-01-09T21:22:39;5.75;;;1.80;;
66761;SDS011;53672;48.176;16.338;2023-01-09T21:27:41;9.35;;;2.90;;
66761;SDS011;53672;48.176;16.338;2023-01-09T21:32:43;4.77;;;1.87;;
66761;SDS011;53672;48.176;16.338;2023-01-09T21:37:43;4.53;;;1.70;;
66761;SDS011;53672;48.176;16.338;2023-01-09T21:42:44;4.70;;;1.60;;
66761;SDS011;53672;48.176;16.338;2023-01-09T21:47:46;6.83;;;2.07;;
66761;SDS011;53672;48.176;16.338;2023-01-09T21:52:46;7.97;;;2.15;;
66761;SDS011;53672;48.176;16.338;2023-01-09T21:57:47;6.00;;;2.30;;
66761;SDS011;53672;48.176;16.338;2023-01-09T22:02:49;7.00;;;2.10;;
66761;SDS011;53672;48.176;16.338;2023-01-09T22:07:49;5.95;;;2.08;;
66761;SDS011;53672;48.176;16.338;2023-01-09T22:12:50;5.80;;;1.80;;
66761;SDS011;53672;48.176;16.338;2023-01-09T22:17:52;6.43;;;2.10;;
66761;SDS011;53672;48.176;16.338;2023-01-09T22:22:53;7.25;;;2.03;;
66761;SDS011;53672;48.176;16.338;2023-01-09T22:27:53;4.90;;;1.90;;
66761;SDS011;53672;48.176;16.338;2023-01-09T22:32:55;5.73;;;2.23;;
66761;SDS011;53672;48.176;16.338;2023-01-09T22:37:55;6.28;;;2.03;;
66761;SDS011;53672;48.176;16.338;2023-01-09T22:42:56;4.40;;;1.50;;
66761;SDS011;53672;48.176;16.338;2023-01-09T22:47:58;5.00;;;1.70;;
66761;SDS011;53672;48.176;16.338;2023-01-09T22:52:58;6.80;;;1.95;;
66761;SDS011;53672;48.176;16.338;2023-01-09T22:57:59;5.97;;;2.00;;
66761;SDS011;53672;48.176;16.338;2023-01-09T23:03:01;4.87;;;1.93;;
66761;SDS011;53672;48.176;16.338;2023-01-09T23:08:01;4.95;;;1.90;;
66761;SDS011;53672;48.176;16.338;2023-01-09T23:13:02;4.80;;;2.10;;
66761;SDS011;53672;48.176;16.338;2023-01-09T23:18:04;5.60;;;1.90;;
66761;SDS011;53672;48.176;16.338;2023-01-09T23:23:04;5.68;;;1.90;;
66761;SDS011;53672;48.176;16.338;2023-01-09T23:28:05;6.00;;;2.00;;
66761;SDS011;53672;48.176;16.338;2023-01-09T23:33:07;5.87;;;1.93;;
66761;SDS011;53672;48.176;16.338;2023-01-09T23:38:07;5.88;;;2.08;;
66761;SDS011;53672;48.176;16.338;2023-01-09T23:43:08;5.32;;;1.80;;
66761;SDS011;53672;48.176;16.338;2023-01-09T23:48:11;4.80;;;1.90;;
66761;SDS011;53672;48.176;16.338;2023-01-09T23:53:13;7.03;;;2.40;;
66761;SDS011;53672;48.176;16.338;2023-01-09T23:58:14;4.60;;;2.00;;
